createdAt,value
2023-05-31T00:00:02.084Z,95809.50
2023-05-31T00:02:33.492Z,95808.91
2023-05-31T00:05:01.974Z,95813.78
2023-05-31T00:07:31.120Z,95800.53
2023-05-31T00:10:01.552Z,95799.88
2023-05-31T00:12:29.603Z,95800.28
2023-05-31T00:15:00.182Z,95797.44
2023-05-31T00:17:49.843Z,95795.19
2023-05-31T00:20:19.049Z,95795.59
2023-05-31T00:22:47.724Z,95803.78
2023-05-31T00:25:18.326Z,95802.53
2023-05-31T00:27:47.555Z,95798.22
2023-05-31T00:30:16.451Z,95806.81
2023-05-31T00:32:45.948Z,95801.69
2023-05-31T00:35:14.747Z,95799.25
2023-05-31T00:37:45.133Z,95811.28
2023-05-31T00:40:13.965Z,95807.41
2023-05-31T00:42:44.230Z,95803.28
2023-05-31T00:45:14.692Z,95814.31
2023-05-31T00:47:44.777Z,95821.47
2023-05-31T00:50:14.057Z,95816.78
2023-05-31T00:52:44.877Z,95816.78
2023-05-31T00:55:13.633Z,95817.38
2023-05-31T00:57:44.097Z,95816.94
2023-05-31T01:00:14.243Z,95809.59
2023-05-31T01:02:44.497Z,95816.31
2023-05-31T01:05:13.758Z,95814.69
2023-05-31T01:07:42.551Z,95821.19
2023-05-31T01:10:12.554Z,95813.19
2023-05-31T01:12:51.788Z,95814.22
2023-05-31T01:15:25.174Z,95821.56
2023-05-31T01:18:02.480Z,95813.38
2023-05-31T01:20:34.379Z,95821.72
2023-05-31T01:23:37.282Z,95817.00
2023-05-31T01:26:36.640Z,95814.97
2023-05-31T01:29:11.966Z,95805.13
2023-05-31T01:31:43.638Z,95809.56
2023-05-31T01:34:13.493Z,95806.69
2023-05-31T01:36:42.330Z,95803.38
2023-05-31T01:39:14.308Z,95807.06
2023-05-31T01:41:45.161Z,95801.13
2023-05-31T01:44:19.978Z,95803.78
2023-05-31T01:46:49.661Z,95799.72
2023-05-31T01:49:19.263Z,95796.00
2023-05-31T01:51:49.946Z,95798.22
2023-05-31T01:54:19.496Z,95800.25
2023-05-31T01:56:49.667Z,95793.91
2023-05-31T01:59:20.563Z,95794.31
2023-05-31T02:01:50.330Z,95788.13
2023-05-31T02:04:21.470Z,95786.88
2023-05-31T02:06:52.726Z,95780.34
2023-05-31T02:09:23.354Z,95786.03
2023-05-31T02:11:51.973Z,95786.41
2023-05-31T02:14:22.707Z,95792.91
2023-05-31T02:16:51.587Z,95789.84
2023-05-31T02:19:20.978Z,95792.88
2023-05-31T02:21:50.294Z,95795.91
2023-05-31T02:24:18.779Z,95788.34
2023-05-31T02:26:48.207Z,95796.31
2023-05-31T02:29:16.954Z,95795.66
2023-05-31T02:31:49.780Z,95790.75
2023-05-31T02:34:19.545Z,95803.38
2023-05-31T02:36:47.968Z,95792.31
2023-05-31T02:39:16.473Z,95790.53
2023-05-31T02:41:45.022Z,95788.63
2023-05-31T02:44:15.037Z,95791.91
2023-05-31T02:46:43.407Z,95788.63
2023-05-31T02:49:15.634Z,95788.63
2023-05-31T02:51:44.700Z,95793.94
2023-05-31T02:54:32.443Z,95785.38
2023-05-31T02:57:01.715Z,95787.19
2023-05-31T02:59:35.584Z,95785.38
2023-05-31T03:02:11.369Z,95790.00
2023-05-31T03:04:47.728Z,95785.72
2023-05-31T03:07:16.755Z,95780.84
2023-05-31T03:09:45.856Z,95778.56
2023-05-31T03:12:13.541Z,95778.75
2023-05-31T03:14:43.127Z,95780.78
2023-05-31T03:17:10.804Z,95776.69
2023-05-31T03:19:41.100Z,95784.38
2023-05-31T03:22:10.183Z,95781.09
2023-05-31T03:24:37.906Z,95772.53
2023-05-31T03:27:07.479Z,95789.63
2023-05-31T03:29:36.325Z,95792.81
2023-05-31T03:32:04.257Z,95789.53
2023-05-31T03:34:31.985Z,95787.47
2023-05-31T03:36:59.922Z,95793.59
2023-05-31T03:39:40.442Z,95786.63
2023-05-31T03:42:10.989Z,95787.28
2023-05-31T03:44:38.733Z,95790.56
2023-05-31T03:47:07.567Z,95796.25
2023-05-31T03:49:35.494Z,95795.22
2023-05-31T03:52:03.239Z,95787.91
2023-05-31T03:54:31.454Z,95792.81
2023-05-31T03:57:00.494Z,95795.09
2023-05-31T03:59:29.206Z,95791.19
2023-05-31T04:01:57.432Z,95787.53
2023-05-31T04:04:25.354Z,95795.72
2023-05-31T04:06:55.873Z,95787.00
2023-05-31T04:09:24.583Z,95783.59
2023-05-31T04:11:52.980Z,95788.50
2023-05-31T04:14:22.953Z,95795.06
2023-05-31T04:16:50.836Z,95792.84
2023-05-31T04:19:18.840Z,95798.59
2023-05-31T04:21:46.752Z,95797.00
2023-05-31T04:24:14.618Z,95806.00
2023-05-31T04:26:42.667Z,95797.13
2023-05-31T04:29:11.826Z,95805.09
2023-05-31T04:31:50.757Z,95796.19
2023-05-31T04:34:20.754Z,95804.78
2023-05-31T04:36:51.491Z,95800.38
2023-05-31T04:39:23.570Z,95808.59
2023-05-31T04:41:53.711Z,95813.94
2023-05-31T04:44:22.054Z,95821.31
2023-05-31T04:46:53.350Z,95812.78
2023-05-31T04:49:21.329Z,95819.28
2023-05-31T04:51:49.859Z,95812.84
2023-05-31T04:54:18.549Z,95805.75
2023-05-31T04:56:46.592Z,95816.78
2023-05-31T04:59:14.540Z,95809.28
2023-05-31T05:01:42.521Z,95815.06
2023-05-31T05:04:16.049Z,95812.00
2023-05-31T05:06:44.318Z,95810.03
2023-05-31T05:09:12.922Z,95809.63
2023-05-31T05:11:40.744Z,95814.75
2023-05-31T05:14:09.113Z,95822.09
2023-05-31T05:16:37.080Z,95815.59
2023-05-31T05:19:05.999Z,95814.38
2023-05-31T05:21:37.930Z,95813.63
2023-05-31T05:24:06.456Z,95815.22
2023-05-31T05:26:36.253Z,95816.44
2023-05-31T05:29:04.707Z,95820.94
2023-05-31T05:31:33.012Z,95820.09
2023-05-31T05:34:03.701Z,95827.03
2023-05-31T05:36:31.978Z,95813.50
2023-05-31T05:39:05.437Z,95817.59
2023-05-31T05:41:34.684Z,95816.72
2023-05-31T05:44:04.586Z,95816.25
2023-05-31T05:46:32.922Z,95822.00
2023-05-31T05:49:00.639Z,95822.78
2023-05-31T05:51:29.130Z,95819.44
2023-05-31T05:54:02.325Z,95818.16
2023-05-31T05:56:30.070Z,95821.03
2023-05-31T05:59:01.196Z,95815.59
2023-05-31T06:01:41.852Z,95813.91
2023-05-31T06:04:12.204Z,95827.91
2023-05-31T06:06:40.236Z,95823.34
2023-05-31T06:09:09.637Z,95825.03
2023-05-31T06:11:37.305Z,95825.94
2023-05-31T06:14:05.150Z,95824.03
2023-05-31T06:16:39.864Z,95819.13
2023-05-31T06:19:07.763Z,95828.72
2023-05-31T06:21:35.945Z,95827.88
2023-05-31T06:24:04.227Z,95825.38
2023-05-31T06:26:36.622Z,95829.72
2023-05-31T06:29:05.198Z,95837.22
2023-05-31T06:31:57.015Z,95825.91
2023-05-31T06:34:26.414Z,95839.34
2023-05-31T06:36:58.087Z,95836.94
2023-05-31T06:39:26.198Z,95835.78
2023-05-31T06:41:55.541Z,95835.44
2023-05-31T06:44:55.034Z,95833.47
2023-05-31T06:47:43.029Z,95829.16
2023-05-31T06:50:17.034Z,95832.28
2023-05-31T06:52:44.847Z,95826.53
2023-05-31T06:55:32.169Z,95829.03
2023-05-31T06:58:02.823Z,95820.44
2023-05-31T07:00:34.761Z,95823.13
2023-05-31T07:03:02.491Z,95823.88
2023-05-31T07:05:31.144Z,95816.91
2023-05-31T07:07:59.697Z,95823.22
2023-05-31T07:10:28.203Z,95824.16
2023-05-31T07:12:56.205Z,95822.72
2023-05-31T07:15:25.412Z,95830.88
2023-05-31T07:17:53.281Z,95830.88
2023-05-31T07:20:21.713Z,95817.41
2023-05-31T07:22:49.366Z,95832.97
2023-05-31T07:25:17.012Z,95820.59
2023-05-31T07:27:44.698Z,95828.41
2023-05-31T07:30:13.014Z,95819.31
2023-05-31T07:32:42.217Z,95823.41
2023-05-31T07:35:10.670Z,95832.22
2023-05-31T07:37:39.180Z,95822.63
2023-05-31T07:40:09.507Z,95828.81
2023-05-31T07:42:37.262Z,95830.47
2023-05-31T07:45:05.742Z,95829.41
2023-05-31T07:47:34.205Z,95824.25
2023-05-31T07:50:03.573Z,95816.34
2023-05-31T07:52:31.261Z,95821.19
2023-05-31T07:54:59.208Z,95823.63
2023-05-31T07:57:26.864Z,95814.81
2023-05-31T07:59:54.668Z,95818.66
2023-05-31T08:02:22.934Z,95810.19
2023-05-31T08:04:50.792Z,95820.78
2023-05-31T08:07:20.042Z,95815.59
2023-05-31T08:09:48.600Z,95820.34
2023-05-31T08:12:16.508Z,95820.47
2023-05-31T08:14:44.961Z,95814.50
2023-05-31T08:17:12.796Z,95809.53
2023-05-31T08:19:40.542Z,95811.56
2023-05-31T08:22:09.103Z,95816.19
2023-05-31T08:24:38.181Z,95809.44
2023-05-31T08:27:06.729Z,95811.81
2023-05-31T08:29:35.749Z,95807.75
2023-05-31T08:32:03.416Z,95815.56
2023-05-31T08:34:31.056Z,95813.31
2023-05-31T08:36:59.120Z,95806.03
2023-05-31T08:39:26.897Z,95817.00
2023-05-31T08:42:02.852Z,95813.66
2023-05-31T08:44:31.124Z,95820.41
2023-05-31T08:47:01.114Z,95809.81
2023-05-31T08:49:29.216Z,95811.53
2023-05-31T08:51:58.512Z,95813.88
2023-05-31T08:54:27.236Z,95806.31
2023-05-31T08:56:56.464Z,95805.41
2023-05-31T08:59:24.647Z,95802.56
2023-05-31T09:01:53.742Z,95809.59
2023-05-31T09:04:22.388Z,95808.59
2023-05-31T09:06:50.106Z,95805.06
2023-05-31T09:09:17.948Z,95798.09
2023-05-31T09:11:46.099Z,95806.47
2023-05-31T09:14:15.338Z,95808.88
2023-05-31T09:16:43.070Z,95806.72
2023-05-31T09:19:11.121Z,95808.69
2023-05-31T09:21:43.659Z,95808.56
2023-05-31T09:24:13.470Z,95797.38
2023-05-31T09:26:48.708Z,95801.31
2023-05-31T09:29:18.981Z,95801.16
2023-05-31T09:31:47.140Z,95792.75
2023-05-31T09:34:27.087Z,95799.25
2023-05-31T09:36:59.619Z,95794.72
2023-05-31T09:39:27.795Z,95791.13
2023-05-31T09:41:59.910Z,95793.28
2023-05-31T09:44:30.217Z,95781.94
2023-05-31T09:46:59.062Z,95784.13
2023-05-31T09:49:29.347Z,95779.16
2023-05-31T09:51:57.636Z,95787.22
2023-05-31T09:54:28.401Z,95782.84
2023-05-31T09:56:57.919Z,95784.03
2023-05-31T09:59:26.125Z,95784.31
2023-05-31T10:01:55.933Z,95775.94
2023-05-31T10:04:24.134Z,95775.66
2023-05-31T10:06:52.920Z,95783.31
2023-05-31T10:09:20.568Z,95776.06
2023-05-31T10:11:52.669Z,95785.13
2023-05-31T10:14:26.084Z,95775.66
2023-05-31T10:16:57.215Z,95779.72
2023-05-31T10:19:28.569Z,95782.97
2023-05-31T10:22:00.722Z,95780.78
2023-05-31T10:24:32.815Z,95782.50
2023-05-31T10:27:05.017Z,95766.88
2023-05-31T10:29:35.589Z,95769.50
2023-05-31T10:32:12.236Z,95771.78
2023-05-31T10:34:40.324Z,95774.31
2023-05-31T10:37:08.610Z,95779.94
2023-05-31T10:39:45.183Z,95771.84
2023-05-31T10:42:21.419Z,95766.78
2023-05-31T10:44:59.711Z,95767.59
2023-05-31T10:47:36.587Z,95764.59
2023-05-31T10:50:05.572Z,95761.41
2023-05-31T10:52:33.239Z,95765.41
2023-05-31T10:55:21.032Z,95766.69
2023-05-31T10:57:52.775Z,95755.06
2023-05-31T11:00:21.455Z,95759.84
2023-05-31T11:02:52.624Z,95757.38
2023-05-31T11:05:22.831Z,95759.94
2023-05-31T11:07:51.915Z,95757.88
2023-05-31T11:10:30.903Z,95754.72
2023-05-31T11:13:03.952Z,95764.41
2023-05-31T11:15:42.118Z,95754.84
2023-05-31T11:18:15.419Z,95745.25
2023-05-31T11:20:43.125Z,95742.94
2023-05-31T11:23:30.235Z,95747.56
2023-05-31T11:26:21.361Z,95755.91
2023-05-31T11:28:58.098Z,95746.94
2023-05-31T11:32:00.800Z,95741.38
2023-05-31T11:34:31.325Z,95746.13
2023-05-31T11:37:00.965Z,95743.81
2023-05-31T11:39:28.911Z,95734.56
2023-05-31T11:41:57.585Z,95732.56
2023-05-31T11:44:31.210Z,95735.34
2023-05-31T11:47:06.289Z,95729.59
2023-05-31T11:49:35.617Z,95726.81
2023-05-31T11:52:04.275Z,95724.22
2023-05-31T11:54:34.270Z,95730.63
2023-05-31T11:57:05.118Z,95723.06
2023-05-31T11:59:34.308Z,95720.09
2023-05-31T12:02:02.854Z,95723.66
2023-05-31T12:04:32.896Z,95723.94
2023-05-31T12:07:02.107Z,95714.13
2023-05-31T12:09:30.999Z,95721.56
2023-05-31T12:11:58.943Z,95723.06
2023-05-31T12:14:27.295Z,95716.59
2023-05-31T12:16:56.002Z,95715.28
2023-05-31T12:19:24.053Z,95707.09
2023-05-31T12:21:52.510Z,95714.88
2023-05-31T12:24:21.608Z,95707.66
2023-05-31T12:26:50.313Z,95711.56
2023-05-31T12:29:18.909Z,95703.41
2023-05-31T12:31:47.715Z,95707.56
2023-05-31T12:34:19.369Z,95713.19
2023-05-31T12:36:48.306Z,95697.44
2023-05-31T12:39:19.822Z,95696.63
2023-05-31T12:41:50.620Z,95696.19
2023-05-31T12:44:21.336Z,95696.75
2023-05-31T12:46:50.201Z,95700.09
2023-05-31T12:49:22.700Z,95702.97
2023-05-31T12:51:50.555Z,95700.69
2023-05-31T12:54:19.478Z,95708.50
2023-05-31T12:56:48.627Z,95701.53
2023-05-31T12:59:16.499Z,95706.81
2023-05-31T13:01:45.878Z,95704.22
2023-05-31T13:04:14.870Z,95703.19
2023-05-31T13:06:42.677Z,95697.78
2023-05-31T13:09:10.943Z,95699.88
2023-05-31T13:11:39.502Z,95702.69
2023-05-31T13:14:10.618Z,95688.19
2023-05-31T13:16:40.689Z,95690.91
2023-05-31T13:19:09.178Z,95692.56
2023-05-31T13:21:38.028Z,95680.66
2023-05-31T13:24:07.316Z,95684.31
2023-05-31T13:26:36.914Z,95683.75
2023-05-31T13:29:05.871Z,95680.66
2023-05-31T13:31:35.003Z,95677.13
2023-05-31T13:34:02.888Z,95674.25
2023-05-31T13:36:30.756Z,95663.34
2023-05-31T13:38:58.503Z,95664.78
2023-05-31T13:41:26.144Z,95669.53
2023-05-31T13:43:53.842Z,95664.44
2023-05-31T13:46:21.580Z,95663.31
2023-05-31T13:48:50.698Z,95656.19
2023-05-31T13:51:18.498Z,95661.25
2023-05-31T13:53:46.289Z,95654.16
2023-05-31T13:56:13.980Z,95660.72
2023-05-31T13:58:41.930Z,95660.22
2023-05-31T14:01:09.915Z,95648.28
2023-05-31T14:03:37.871Z,95655.53
2023-05-31T14:06:07.699Z,95649.41
2023-05-31T14:08:36.894Z,95654.28
2023-05-31T14:11:04.680Z,95648.59
2023-05-31T14:13:32.395Z,95651.44
2023-05-31T14:16:01.472Z,95648.47
2023-05-31T14:18:29.438Z,95648.97
2023-05-31T14:20:57.865Z,95639.72
2023-05-31T14:23:27.497Z,95643.94
2023-05-31T14:25:55.630Z,95639.13
2023-05-31T14:28:23.479Z,95633.34
2023-05-31T14:30:51.563Z,95631.06
2023-05-31T14:33:20.131Z,95636.28
2023-05-31T14:35:49.417Z,95632.44
2023-05-31T14:38:35.122Z,95621.84
2023-05-31T14:41:07.139Z,95629.13
2023-05-31T14:43:36.427Z,95619.09
2023-05-31T14:46:06.122Z,95625.06
2023-05-31T14:48:35.233Z,95621.53
2023-05-31T14:51:04.453Z,95616.44
2023-05-31T14:53:32.916Z,95619.25
2023-05-31T14:56:16.508Z,95621.31
2023-05-31T14:58:48.676Z,95620.50
2023-05-31T15:01:17.978Z,95612.03
2023-05-31T15:03:47.273Z,95616.63
2023-05-31T15:06:17.703Z,95616.44
2023-05-31T15:08:46.628Z,95622.75
2023-05-31T15:11:15.032Z,95621.66
2023-05-31T15:13:43.416Z,95624.94
2023-05-31T15:16:13.618Z,95614.31
2023-05-31T15:18:42.269Z,95614.63
2023-05-31T15:21:10.908Z,95615.13
2023-05-31T15:23:39.900Z,95611.31
2023-05-31T15:26:09.412Z,95604.72
2023-05-31T15:28:37.937Z,95608.66
2023-05-31T15:31:09.617Z,95618.41
2023-05-31T15:33:39.839Z,95617.75
2023-05-31T15:36:08.907Z,95614.75
2023-05-31T15:38:36.926Z,95618.38
2023-05-31T15:41:05.364Z,95620.91
2023-05-31T15:43:33.778Z,95617.09
2023-05-31T15:46:01.897Z,95616.81
2023-05-31T15:48:29.723Z,95611.91
2023-05-31T15:50:59.412Z,95607.47
2023-05-31T15:53:27.594Z,95606.34
2023-05-31T15:55:56.254Z,95610.78
2023-05-31T15:58:24.014Z,95602.84
2023-05-31T16:00:51.822Z,95605.34
2023-05-31T16:03:19.677Z,95599.44
2023-05-31T16:05:47.724Z,95598.47
2023-05-31T16:08:17.127Z,95601.75
2023-05-31T16:10:45.204Z,95588.84
2023-05-31T16:13:13.399Z,95591.78
2023-05-31T16:15:41.723Z,95595.31
2023-05-31T16:18:11.036Z,95591.13
2023-05-31T16:20:39.814Z,95585.03
2023-05-31T16:23:10.092Z,95583.75
2023-05-31T16:25:41.190Z,95581.47
2023-05-31T16:28:11.008Z,95577.78
2023-05-31T16:30:39.996Z,95578.34
2023-05-31T16:33:10.009Z,95579.34
2023-05-31T16:35:39.609Z,95580.19
2023-05-31T16:38:08.328Z,95574.44
2023-05-31T16:40:36.639Z,95583.66
2023-05-31T16:43:07.020Z,95583.00
2023-05-31T16:45:34.816Z,95587.88
2023-05-31T16:48:02.730Z,95583.38
2023-05-31T16:50:30.411Z,95587.91
2023-05-31T16:52:58.420Z,95581.88
2023-05-31T16:55:26.069Z,95583.63
2023-05-31T16:57:53.979Z,95579.47
2023-05-31T17:00:23.544Z,95585.41
2023-05-31T17:02:51.339Z,95582.97
2023-05-31T17:05:19.142Z,95576.94
2023-05-31T17:07:47.059Z,95578.25
2023-05-31T17:10:14.880Z,95584.13
2023-05-31T17:12:44.135Z,95577.16
2023-05-31T17:15:12.450Z,95579.47
2023-05-31T17:17:42.562Z,95577.66
2023-05-31T17:20:12.629Z,95582.31
2023-05-31T17:22:40.661Z,95581.09
2023-05-31T17:25:09.302Z,95585.97
2023-05-31T17:27:36.968Z,95584.97
2023-05-31T17:30:05.302Z,95581.00
2023-05-31T17:32:33.036Z,95592.41
2023-05-31T17:35:02.032Z,95589.19
2023-05-31T17:37:31.173Z,95584.34
2023-05-31T17:39:59.044Z,95586.00
2023-05-31T17:42:26.819Z,95586.34
2023-05-31T17:44:54.503Z,95585.28
2023-05-31T17:47:22.179Z,95579.63
2023-05-31T17:49:49.964Z,95579.34
2023-05-31T17:52:18.945Z,95585.56
2023-05-31T17:54:46.738Z,95584.78
2023-05-31T17:57:14.408Z,95585.88
2023-05-31T17:59:42.181Z,95575.63
2023-05-31T18:02:10.072Z,95577.53
2023-05-31T18:04:37.910Z,95577.50
2023-05-31T18:07:07.362Z,95584.53
2023-05-31T18:09:36.775Z,95580.22
2023-05-31T18:12:04.787Z,95580.19
2023-05-31T18:14:32.420Z,95577.53
2023-05-31T18:17:00.218Z,95580.19
2023-05-31T18:19:29.079Z,95577.25
2023-05-31T18:21:56.978Z,95578.59
2023-05-31T18:24:24.651Z,95582.91
2023-05-31T18:26:54.032Z,95577.47
2023-05-31T18:29:23.664Z,95581.75
2023-05-31T18:31:51.649Z,95582.28
2023-05-31T18:34:19.394Z,95584.94
2023-05-31T18:36:47.273Z,95580.56
2023-05-31T18:39:14.918Z,95593.44
2023-05-31T18:41:42.970Z,95597.09
2023-05-31T18:44:11.962Z,95597.53
2023-05-31T18:46:40.157Z,95592.09
2023-05-31T18:49:07.840Z,95593.38
2023-05-31T18:51:36.918Z,95594.88
2023-05-31T18:54:05.180Z,95592.31
2023-05-31T18:56:33.025Z,95591.69
2023-05-31T18:59:00.693Z,95595.63
2023-05-31T19:01:30.085Z,95591.22
2023-05-31T19:03:57.969Z,95597.81
2023-05-31T19:06:25.674Z,95595.84
2023-05-31T19:08:53.360Z,95600.31
2023-05-31T19:11:21.064Z,95592.91
2023-05-31T19:13:48.737Z,95591.22
2023-05-31T19:16:16.418Z,95598.91
2023-05-31T19:18:45.463Z,95602.03
2023-05-31T19:21:15.262Z,95600.84
2023-05-31T19:23:43.993Z,95611.22
2023-05-31T19:26:12.597Z,95608.16
2023-05-31T19:28:40.299Z,95610.28
2023-05-31T19:31:07.995Z,95608.03
2023-05-31T19:33:35.742Z,95605.75
2023-05-31T19:36:05.350Z,95615.28
2023-05-31T19:38:34.262Z,95613.25
2023-05-31T19:41:02.159Z,95616.59
2023-05-31T19:43:30.717Z,95622.34
2023-05-31T19:46:00.048Z,95625.44
2023-05-31T19:48:28.260Z,95623.16
2023-05-31T19:50:56.216Z,95626.75
2023-05-31T19:53:25.220Z,95626.34
2023-05-31T19:55:52.857Z,95625.91
2023-05-31T19:58:20.589Z,95626.91
2023-05-31T20:00:49.192Z,95624.38
2023-05-31T20:03:17.089Z,95631.69
2023-05-31T20:05:44.796Z,95629.16
2023-05-31T20:08:13.258Z,95629.56
2023-05-31T20:10:42.318Z,95632.41
2023-05-31T20:13:24.512Z,95638.94
2023-05-31T20:15:52.656Z,95638.25
2023-05-31T20:18:21.895Z,95630.16
2023-05-31T20:20:49.567Z,95641.78
2023-05-31T20:23:17.274Z,95630.97
2023-05-31T20:25:46.535Z,95634.13
2023-05-31T20:28:14.177Z,95637.66
2023-05-31T20:30:41.995Z,95633.38
2023-05-31T20:33:09.697Z,95631.97
2023-05-31T20:35:37.419Z,95632.22
2023-05-31T20:38:05.093Z,95637.81
2023-05-31T20:40:33.119Z,95640.72
2023-05-31T20:43:02.112Z,95639.53
2023-05-31T20:45:29.800Z,95643.13
2023-05-31T20:47:57.843Z,95633.94
2023-05-31T20:50:26.554Z,95634.88
2023-05-31T20:52:54.390Z,95634.53
2023-05-31T20:55:22.583Z,95637.88
2023-05-31T20:57:50.506Z,95639.97
2023-05-31T21:00:23.069Z,95635.09
2023-05-31T21:02:50.938Z,95632.47
2023-05-31T21:05:18.729Z,95631.53
2023-05-31T21:07:46.379Z,95632.47
2023-05-31T21:10:15.262Z,95627.56
2023-05-31T21:12:43.186Z,95637.06
2023-05-31T21:15:11.392Z,95636.50
2023-05-31T21:17:40.492Z,95637.97
2023-05-31T21:20:09.694Z,95627.75
2023-05-31T21:22:37.564Z,95626.13
2023-05-31T21:25:05.933Z,95636.81
2023-05-31T21:27:33.866Z,95631.31
2023-05-31T21:30:01.480Z,95633.25
2023-05-31T21:32:29.417Z,95635.81
2023-05-31T21:34:58.461Z,95638.31
2023-05-31T21:37:26.156Z,95637.16
2023-05-31T21:39:53.824Z,95634.97
2023-05-31T21:42:21.480Z,95636.78
2023-05-31T21:44:49.135Z,95635.63
2023-05-31T21:47:16.981Z,95638.13
2023-05-31T21:49:44.699Z,95638.59
2023-05-31T21:52:14.141Z,95640.09
2023-05-31T21:54:41.797Z,95637.50
2023-05-31T21:57:11.358Z,95646.13
2023-05-31T21:59:39.212Z,95640.44
2023-05-31T22:02:07.657Z,95636.63
2023-05-31T22:04:35.653Z,95645.03
2023-05-31T22:07:03.342Z,95642.22
2023-05-31T22:09:32.425Z,95637.31
2023-05-31T22:12:00.171Z,95632.88
2023-05-31T22:14:29.312Z,95631.25
2023-05-31T22:16:57.833Z,95633.31
2023-05-31T22:19:26.897Z,95633.31
2023-05-31T22:21:56.052Z,95632.88
2023-05-31T22:24:24.732Z,95641.69
2023-05-31T22:26:53.797Z,95633.47
2023-05-31T22:29:21.790Z,95637.75
2023-05-31T22:31:49.618Z,95637.75
2023-05-31T22:34:17.420Z,95638.56
2023-05-31T22:36:45.889Z,95633.47
2023-05-31T22:39:14.289Z,95638.81
2023-05-31T22:41:41.986Z,95632.88
2023-05-31T22:44:11.291Z,95633.31
2023-05-31T22:46:38.943Z,95628.19
2023-05-31T22:49:06.735Z,95634.56
2023-05-31T22:51:34.373Z,95634.56
2023-05-31T22:54:02.295Z,95632.13
2023-05-31T22:56:29.930Z,95637.28
2023-05-31T22:58:57.694Z,95632.88
2023-05-31T23:01:26.989Z,95639.66
2023-05-31T23:03:55.012Z,95636.03
2023-05-31T23:06:26.368Z,95640.97
2023-05-31T23:08:54.370Z,95641.44
2023-05-31T23:11:23.165Z,95636.97
2023-05-31T23:13:50.816Z,95632.53
2023-05-31T23:16:19.530Z,95637.09
2023-05-31T23:18:48.590Z,95635.53
2023-05-31T23:21:17.446Z,95625.72
2023-05-31T23:23:45.270Z,95630.69
2023-05-31T23:26:12.912Z,95624.78
2023-05-31T23:28:40.720Z,95626.22
2023-05-31T23:31:08.482Z,95635.25
2023-05-31T23:33:36.266Z,95626.66
2023-05-31T23:36:05.613Z,95622.38
2023-05-31T23:38:33.265Z,95634.47
2023-05-31T23:41:01.650Z,95619.97
2023-05-31T23:43:29.426Z,95630.44
2023-05-31T23:45:57.224Z,95625.53
2023-05-31T23:48:25.012Z,95633.78
2023-05-31T23:50:53.027Z,95624.41
2023-05-31T23:53:22.192Z,95627.34
2023-05-31T23:55:49.899Z,95629.22
2023-05-31T23:58:17.656Z,95633.34
